sensor_id;sensor_type;location;lat;lon;timestamp;pressure;altitude;pressure_sealevel;temperature;humidity
51526;BME280;37611;51.794;21.590;2023-09-08T00:01:43;100959.59;;;17.58;100.00
51526;BME280;37611;51.794;21.590;2023-09-08T00:05:44;100958.74;;;17.57;100.00
51526;BME280;37611;51.794;21.590;2023-09-08T00:09:46;100959.49;;;17.53;100.00
51526;BME280;37611;51.794;21.590;2023-09-08T00:13:48;100964.84;;;17.53;100.00
51526;BME280;37611;51.794;21.590;2023-09-08T00:17:51;100958.60;;;17.52;100.00
51526;BME280;37611;51.794;21.590;2023-09-08T00:21:53;100961.73;;;17.49;100.00
51526;BME280;37611;51.794;21.590;2023-09-08T00:25:55;100958.23;;;17.46;100.00
51526;BME280;37611;51.794;21.590;2023-09-08T00:29:57;100953.50;;;17.42;100.00
51526;BME280;37611;51.794;21.590;2023-09-08T00:33:58;100949.73;;;17.39;100.00
51526;BME280;37611;51.794;21.590;2023-09-08T00:38:00;100948.36;;;17.39;100.00
51526;BME280;37611;51.794;21.590;2023-09-08T00:42:02;100952.54;;;17.36;100.00
51526;BME280;37611;51.794;21.590;2023-09-08T00:46:04;100951.55;;;17.34;100.00
51526;BME280;37611;51.794;21.590;2023-09-08T00:50:07;100952.25;;;17.31;100.00
51526;BME280;37611;51.794;21.590;2023-09-08T00:54:10;100946.56;;;17.27;100.00
51526;BME280;37611;51.794;21.590;2023-09-08T00:58:12;100942.56;;;17.23;100.00
51526;BME280;37611;51.794;21.590;2023-09-08T01:02:14;100946.20;;;17.21;100.00
51526;BME280;37611;51.794;21.590;2023-09-08T01:06:16;100946.86;;;17.16;100.00
51526;BME280;37611;51.794;21.590;2023-09-08T01:10:18;100946.00;;;17.09;100.00
51526;BME280;37611;51.794;21.590;2023-09-08T01:14:20;100941.55;;;17.04;100.00
51526;BME280;37611;51.794;21.590;2023-09-08T01:18:22;100946.06;;;17.01;100.00
51526;BME280;37611;51.794;21.590;2023-09-08T01:26:44;100942.63;;;16.94;100.00
51526;BME280;37611;51.794;21.590;2023-09-08T01:30:47;100935.88;;;16.89;100.00
51526;BME280;37611;51.794;21.590;2023-09-08T01:34:49;100938.34;;;16.84;100.00
51526;BME280;37611;51.794;21.590;2023-09-08T01:38:51;100936.16;;;16.79;100.00
51526;BME280;37611;51.794;21.590;2023-09-08T01:42:53;100938.66;;;16.74;100.00
51526;BME280;37611;51.794;21.590;2023-09-08T01:46:55;100934.55;;;16.67;100.00
51526;BME280;37611;51.794;21.590;2023-09-08T01:50:58;100935.27;;;16.64;100.00
51526;BME280;37611;51.794;21.590;2023-09-08T01:55:00;100929.70;;;16.61;100.00
51526;BME280;37611;51.794;21.590;2023-09-08T01:59:01;100931.41;;;16.56;100.00
51526;BME280;37611;51.794;21.590;2023-09-08T02:03:04;100929.66;;;16.53;100.00
51526;BME280;37611;51.794;21.590;2023-09-08T02:07:05;100929.20;;;16.45;100.00
51526;BME280;37611;51.794;21.590;2023-09-08T02:11:07;100929.58;;;16.35;100.00
51526;BME280;37611;51.794;21.590;2023-09-08T02:15:09;100923.77;;;16.27;100.00
51526;BME280;37611;51.794;21.590;2023-09-08T02:19:12;100924.05;;;16.19;100.00
51526;BME280;37611;51.794;21.590;2023-09-08T02:23:14;100926.64;;;16.17;100.00
51526;BME280;37611;51.794;21.590;2023-09-08T02:27:16;100924.88;;;16.16;100.00
51526;BME280;37611;51.794;21.590;2023-09-08T02:31:17;100919.30;;;16.14;100.00
51526;BME280;37611;51.794;21.590;2023-09-08T02:35:19;100917.27;;;16.10;100.00
51526;BME280;37611;51.794;21.590;2023-09-08T02:39:21;100908.30;;;16.08;100.00
51526;BME280;37611;51.794;21.590;2023-09-08T02:43:24;100904.86;;;16.06;100.00
51526;BME280;37611;51.794;21.590;2023-09-08T02:47:27;100897.59;;;16.01;100.00
51526;BME280;37611;51.794;21.590;2023-09-08T02:51:28;100896.59;;;15.94;100.00
51526;BME280;37611;51.794;21.590;2023-09-08T02:55:30;100896.45;;;15.90;100.00
51526;BME280;37611;51.794;21.590;2023-09-08T02:59:32;100898.99;;;15.88;100.00
51526;BME280;37611;51.794;21.590;2023-09-08T03:03:34;100905.42;;;15.83;100.00
51526;BME280;37611;51.794;21.590;2023-09-08T03:07:36;100899.78;;;15.76;100.00
51526;BME280;37611;51.794;21.590;2023-09-08T03:11:38;100899.09;;;15.72;100.00
51526;BME280;37611;51.794;21.590;2023-09-08T03:15:40;100896.56;;;15.71;100.00
51526;BME280;37611;51.794;21.590;2023-09-08T03:19:45;100898.31;;;15.68;100.00
51526;BME280;37611;51.794;21.590;2023-09-08T03:23:47;100895.34;;;15.63;100.00
51526;BME280;37611;51.794;21.590;2023-09-08T03:27:49;100895.15;;;15.54;100.00
51526;BME280;37611;51.794;21.590;2023-09-08T03:31:51;100887.38;;;15.49;100.00
51526;BME280;37611;51.794;21.590;2023-09-08T03:35:53;100890.92;;;15.46;100.00
51526;BME280;37611;51.794;21.590;2023-09-08T03:39:54;100894.98;;;15.44;100.00
51526;BME280;37611;51.794;21.590;2023-09-08T03:43:56;100896.52;;;15.45;100.00
51526;BME280;37611;51.794;21.590;2023-09-08T03:47:58;100891.11;;;15.44;100.00
51526;BME280;37611;51.794;21.590;2023-09-08T03:52:00;100891.84;;;15.44;100.00
51526;BME280;37611;51.794;21.590;2023-09-08T03:56:01;100887.57;;;15.44;100.00
51526;BME280;37611;51.794;21.590;2023-09-08T04:00:04;100885.59;;;15.43;100.00
51526;BME280;37611;51.794;21.590;2023-09-08T04:04:08;100881.41;;;15.44;100.00
51526;BME280;37611;51.794;21.590;2023-09-08T04:08:10;100882.05;;;15.45;100.00
51526;BME280;37611;51.794;21.590;2023-09-08T04:12:12;100875.46;;;15.42;100.00
51526;BME280;37611;51.794;21.590;2023-09-08T04:16:13;100879.27;;;15.42;100.00
51526;BME280;37611;51.794;21.590;2023-09-08T04:20:15;100879.85;;;15.39;100.00
51526;BME280;37611;51.794;21.590;2023-09-08T04:24:17;100884.11;;;15.34;100.00
51526;BME280;37611;51.794;21.590;2023-09-08T04:28:19;100882.02;;;15.32;100.00
51526;BME280;37611;51.794;21.590;2023-09-08T04:32:20;100878.24;;;15.32;100.00
51526;BME280;37611;51.794;21.590;2023-09-08T04:36:22;100881.46;;;15.35;100.00
51526;BME280;37611;51.794;21.590;2023-09-08T04:40:24;100881.41;;;15.41;100.00
51526;BME280;37611;51.794;21.590;2023-09-08T04:44:26;100876.77;;;15.46;100.00
51526;BME280;37611;51.794;21.590;2023-09-08T04:48:28;100872.34;;;15.53;100.00
51526;BME280;37611;51.794;21.590;2023-09-08T04:52:30;100870.13;;;15.66;100.00
51526;BME280;37611;51.794;21.590;2023-09-08T04:56:31;100870.03;;;15.85;100.00
51526;BME280;37611;51.794;21.590;2023-09-08T05:00:33;100874.48;;;16.06;100.00
51526;BME280;37611;51.794;21.590;2023-09-08T05:04:35;100873.55;;;16.19;100.00
51526;BME280;37611;51.794;21.590;2023-09-08T05:08:37;100869.48;;;16.37;100.00
51526;BME280;37611;51.794;21.590;2023-09-08T05:12:38;100868.35;;;16.57;100.00
51526;BME280;37611;51.794;21.590;2023-09-08T05:16:40;100863.50;;;16.75;100.00
51526;BME280;37611;51.794;21.590;2023-09-08T05:20:47;100864.91;;;17.01;100.00
51526;BME280;37611;51.794;21.590;2023-09-08T05:24:49;100866.31;;;17.26;100.00
51526;BME280;37611;51.794;21.590;2023-09-08T05:28:51;100866.33;;;17.46;100.00
51526;BME280;37611;51.794;21.590;2023-09-08T05:32:53;100863.92;;;17.63;100.00
51526;BME280;37611;51.794;21.590;2023-09-08T05:36:54;100860.37;;;17.85;100.00
51526;BME280;37611;51.794;21.590;2023-09-08T05:40:56;100858.17;;;18.01;100.00
51526;BME280;37611;51.794;21.590;2023-09-08T05:44:58;100864.45;;;18.23;100.00
51526;BME280;37611;51.794;21.590;2023-09-08T05:49:00;100867.69;;;18.42;100.00
51526;BME280;37611;51.794;21.590;2023-09-08T05:53:01;100865.33;;;18.57;100.00
51526;BME280;37611;51.794;21.590;2023-09-08T05:57:05;100866.80;;;18.67;100.00
51526;BME280;37611;51.794;21.590;2023-09-08T06:01:07;100867.77;;;18.83;100.00
51526;BME280;37611;51.794;21.590;2023-09-08T06:05:09;100866.90;;;18.99;100.00
51526;BME280;37611;51.794;21.590;2023-09-08T06:09:10;100865.46;;;19.12;100.00
51526;BME280;37611;51.794;21.590;2023-09-08T06:13:13;100865.27;;;19.20;100.00
51526;BME280;37611;51.794;21.590;2023-09-08T06:17:15;100863.27;;;19.23;100.00
51526;BME280;37611;51.794;21.590;2023-09-08T06:21:17;100864.55;;;19.37;100.00
51526;BME280;37611;51.794;21.590;2023-09-08T06:25:18;100862.11;;;19.57;100.00
51526;BME280;37611;51.794;21.590;2023-09-08T06:29:20;100858.19;;;19.73;100.00
51526;BME280;37611;51.794;21.590;2023-09-08T06:33:21;100859.23;;;19.89;100.00
51526;BME280;37611;51.794;21.590;2023-09-08T06:37:26;100858.55;;;20.07;100.00
51526;BME280;37611;51.794;21.590;2023-09-08T06:41:28;100860.18;;;20.22;100.00
51526;BME280;37611;51.794;21.590;2023-09-08T06:45:30;100855.54;;;20.32;99.97
51526;BME280;37611;51.794;21.590;2023-09-08T06:49:32;100859.36;;;20.50;100.00
51526;BME280;37611;51.794;21.590;2023-09-08T06:53:34;100861.51;;;20.71;99.82
51526;BME280;37611;51.794;21.590;2023-09-08T06:57:35;100862.35;;;20.90;99.51
51526;BME280;37611;51.794;21.590;2023-09-08T07:01:37;100858.39;;;21.11;98.45
51526;BME280;37611;51.794;21.590;2023-09-08T07:05:39;100860.04;;;21.23;97.96
51526;BME280;37611;51.794;21.590;2023-09-08T07:09:41;100862.27;;;21.37;96.95
51526;BME280;37611;51.794;21.590;2023-09-08T07:13:43;100864.50;;;21.48;96.44
51526;BME280;37611;51.794;21.590;2023-09-08T07:17:45;100867.00;;;21.62;94.17
51526;BME280;37611;51.794;21.590;2023-09-08T07:21:46;100867.78;;;21.70;90.55
51526;BME280;37611;51.794;21.590;2023-09-08T07:25:49;100870.92;;;21.69;89.56
51526;BME280;37611;51.794;21.590;2023-09-08T07:29:51;100872.36;;;21.73;88.60
51526;BME280;37611;51.794;21.590;2023-09-08T07:33:53;100868.09;;;21.81;88.30
51526;BME280;37611;51.794;21.590;2023-09-08T07:37:55;100866.48;;;21.85;87.43
51526;BME280;37611;51.794;21.590;2023-09-08T07:41:57;100861.17;;;21.92;87.52
51526;BME280;37611;51.794;21.590;2023-09-08T07:45:59;100869.45;;;22.08;86.75
51526;BME280;37611;51.794;21.590;2023-09-08T07:50:21;100864.44;;;22.19;86.42
51526;BME280;37611;51.794;21.590;2023-09-08T07:54:24;100866.32;;;22.34;85.84
51526;BME280;37611;51.794;21.590;2023-09-08T07:58:25;100868.52;;;22.48;85.31
51526;BME280;37611;51.794;21.590;2023-09-08T08:02:27;100863.55;;;22.62;84.66
51526;BME280;37611;51.794;21.590;2023-09-08T08:06:29;100861.03;;;22.75;83.53
51526;BME280;37611;51.794;21.590;2023-09-08T08:10:31;100859.23;;;22.88;82.72
51526;BME280;37611;51.794;21.590;2023-09-08T08:14:33;100858.07;;;23.06;82.46
51526;BME280;37611;51.794;21.590;2023-09-08T08:18:35;100856.43;;;23.20;82.51
51526;BME280;37611;51.794;21.590;2023-09-08T08:22:37;100859.70;;;23.34;81.13
51526;BME280;37611;51.794;21.590;2023-09-08T08:26:39;100862.39;;;23.46;80.31
51526;BME280;37611;51.794;21.590;2023-09-08T08:30:40;100862.67;;;23.60;80.67
51526;BME280;37611;51.794;21.590;2023-09-08T08:34:42;100861.39;;;23.80;79.90
51526;BME280;37611;51.794;21.590;2023-09-08T08:38:44;100856.44;;;24.01;79.77
51526;BME280;37611;51.794;21.590;2023-09-08T08:42:46;100853.89;;;24.23;78.33
51526;BME280;37611;51.794;21.590;2023-09-08T08:46:48;100853.45;;;24.43;77.93
51526;BME280;37611;51.794;21.590;2023-09-08T08:50:51;100848.70;;;24.60;76.19
51526;BME280;37611;51.794;21.590;2023-09-08T08:54:54;100846.34;;;24.74;74.51
51526;BME280;37611;51.794;21.590;2023-09-08T08:58:57;100846.77;;;24.90;74.27
51526;BME280;37611;51.794;21.590;2023-09-08T09:02:59;100843.98;;;25.05;73.21
51526;BME280;37611;51.794;21.590;2023-09-08T09:07:02;100840.61;;;25.21;72.67
51526;BME280;37611;51.794;21.590;2023-09-08T09:11:05;100837.52;;;25.43;73.16
51526;BME280;37611;51.794;21.590;2023-09-08T09:15:07;100835.70;;;25.56;70.81
51526;BME280;37611;51.794;21.590;2023-09-08T09:19:21;100835.98;;;25.65;70.61
51526;BME280;37611;51.794;21.590;2023-09-08T09:23:30;100836.60;;;25.73;68.88
51526;BME280;37611;51.794;21.590;2023-09-08T09:27:33;100829.69;;;25.80;69.08
51526;BME280;37611;51.794;21.590;2023-09-08T09:32:02;100829.73;;;25.99;67.10
51526;BME280;37611;51.794;21.590;2023-09-08T09:36:05;100824.82;;;26.08;67.33
51526;BME280;37611;51.794;21.590;2023-09-08T09:40:07;100824.25;;;26.36;67.99
51526;BME280;37611;51.794;21.590;2023-09-08T09:44:11;100823.10;;;26.65;66.52
51526;BME280;37611;51.794;21.590;2023-09-08T09:48:13;100819.84;;;26.85;65.53
51526;BME280;37611;51.794;21.590;2023-09-08T09:52:23;100817.96;;;26.96;65.02
51526;BME280;37611;51.794;21.590;2023-09-08T09:56:27;100812.36;;;27.24;64.78
51526;BME280;37611;51.794;21.590;2023-09-08T10:00:30;100807.91;;;27.48;63.88
51526;BME280;37611;51.794;21.590;2023-09-08T10:04:34;100806.79;;;27.62;63.25
51526;BME280;37611;51.794;21.590;2023-09-08T10:08:36;100803.29;;;27.81;62.72
51526;BME280;37611;51.794;21.590;2023-09-08T10:12:38;100803.59;;;27.86;61.86
51526;BME280;37611;51.794;21.590;2023-09-08T10:16:45;100802.84;;;27.87;61.81
51526;BME280;37611;51.794;21.590;2023-09-08T10:20:53;100797.02;;;27.89;62.35
51526;BME280;37611;51.794;21.590;2023-09-08T10:25:03;100791.77;;;28.07;59.51
51526;BME280;37611;51.794;21.590;2023-09-08T10:29:07;100787.78;;;27.88;58.51
51526;BME280;37611;51.794;21.590;2023-09-08T10:33:09;100786.07;;;27.96;59.22
51526;BME280;37611;51.794;21.590;2023-09-08T10:37:20;100780.88;;;27.95;57.20
51526;BME280;37611;51.794;21.590;2023-09-08T10:45:25;100779.33;;;27.78;56.94
51526;BME280;37611;51.794;21.590;2023-09-08T10:49:26;100775.09;;;27.65;55.53
51526;BME280;37611;51.794;21.590;2023-09-08T10:53:30;100771.73;;;27.63;55.37
51526;BME280;37611;51.794;21.590;2023-09-08T10:57:33;100772.36;;;27.59;56.78
51526;BME280;37611;51.794;21.590;2023-09-08T11:01:35;100769.23;;;27.72;57.16
51526;BME280;37611;51.794;21.590;2023-09-08T11:05:38;100761.80;;;27.84;56.11
51526;BME280;37611;51.794;21.590;2023-09-08T11:09:40;100759.05;;;27.87;55.03
51526;BME280;37611;51.794;21.590;2023-09-08T11:13:42;100758.21;;;27.97;56.29
51526;BME280;37611;51.794;21.590;2023-09-08T11:17:47;100759.29;;;28.13;56.09
51526;BME280;37611;51.794;21.590;2023-09-08T11:21:52;100752.23;;;28.14;55.24
51526;BME280;37611;51.794;21.590;2023-09-08T11:25:54;100747.66;;;28.08;55.76
51526;BME280;37611;51.794;21.590;2023-09-08T11:29:56;100743.88;;;28.15;55.66
51526;BME280;37611;51.794;21.590;2023-09-08T11:33:58;100742.22;;;28.33;55.61
51526;BME280;37611;51.794;21.590;2023-09-08T11:38:01;100736.98;;;28.38;55.09
51526;BME280;37611;51.794;21.590;2023-09-08T11:42:04;100736.36;;;28.36;55.23
51526;BME280;37611;51.794;21.590;2023-09-08T11:46:06;100731.23;;;28.40;55.01
51526;BME280;37611;51.794;21.590;2023-09-08T11:50:11;100727.77;;;28.27;54.91
51526;BME280;37611;51.794;21.590;2023-09-08T11:54:21;100727.70;;;28.01;55.80
51526;BME280;37611;51.794;21.590;2023-09-08T11:58:23;100723.27;;;27.78;55.98
51526;BME280;37611;51.794;21.590;2023-09-08T12:02:25;100718.22;;;27.70;56.76
51526;BME280;37611;51.794;21.590;2023-09-08T12:06:27;100710.20;;;27.78;56.24
51526;BME280;37611;51.794;21.590;2023-09-08T12:10:30;100708.81;;;27.75;55.36
51526;BME280;37611;51.794;21.590;2023-09-08T12:14:40;100703.07;;;27.78;55.17
51526;BME280;37611;51.794;21.590;2023-09-08T12:18:42;100699.73;;;27.67;54.43
51526;BME280;37611;51.794;21.590;2023-09-08T12:22:48;100694.44;;;27.49;53.82
51526;BME280;37611;51.794;21.590;2023-09-08T12:26:51;100690.19;;;27.47;54.33
51526;BME280;37611;51.794;21.590;2023-09-08T12:30:53;100689.81;;;27.51;54.58
51526;BME280;37611;51.794;21.590;2023-09-08T12:34:55;100681.38;;;27.54;54.67
51526;BME280;37611;51.794;21.590;2023-09-08T12:38:57;100677.23;;;27.58;54.31
51526;BME280;37611;51.794;21.590;2023-09-08T12:42:59;100678.94;;;27.56;54.55
51526;BME280;37611;51.794;21.590;2023-09-08T12:47:00;100673.80;;;27.59;54.14
51526;BME280;37611;51.794;21.590;2023-09-08T12:51:02;100673.70;;;27.55;53.84
51526;BME280;37611;51.794;21.590;2023-09-08T12:55:04;100673.63;;;27.51;55.02
51526;BME280;37611;51.794;21.590;2023-09-08T12:59:06;100669.46;;;27.51;54.32
51526;BME280;37611;51.794;21.590;2023-09-08T13:03:08;100664.14;;;27.52;53.98
51526;BME280;37611;51.794;21.590;2023-09-08T13:07:10;100661.38;;;27.52;54.67
51526;BME280;37611;51.794;21.590;2023-09-08T13:11:12;100655.27;;;27.63;55.30
51526;BME280;37611;51.794;21.590;2023-09-08T13:15:14;100653.00;;;27.70;55.40
51526;BME280;37611;51.794;21.590;2023-09-08T13:19:16;100652.09;;;27.81;56.09
51526;BME280;37611;51.794;21.590;2023-09-08T13:23:18;100653.35;;;27.94;55.37
51526;BME280;37611;51.794;21.590;2023-09-08T13:27:19;100649.45;;;27.94;55.04
51526;BME280;37611;51.794;21.590;2023-09-08T13:31:21;100643.69;;;27.91;54.12
51526;BME280;37611;51.794;21.590;2023-09-08T13:35:23;100641.14;;;27.81;54.21
51526;BME280;37611;51.794;21.590;2023-09-08T13:39:24;100640.77;;;27.77;54.73
51526;BME280;37611;51.794;21.590;2023-09-08T13:43:26;100635.91;;;27.77;55.12
51526;BME280;37611;51.794;21.590;2023-09-08T13:47:28;100630.23;;;27.63;54.83
51526;BME280;37611;51.794;21.590;2023-09-08T13:51:30;100625.12;;;27.43;55.06
51526;BME280;37611;51.794;21.590;2023-09-08T13:55:32;100622.64;;;27.36;55.89
51526;BME280;37611;51.794;21.590;2023-09-08T13:59:34;100619.19;;;27.25;55.37
51526;BME280;37611;51.794;21.590;2023-09-08T14:03:36;100610.89;;;27.16;56.38
51526;BME280;37611;51.794;21.590;2023-09-08T14:07:38;100604.05;;;27.07;56.25
51526;BME280;37611;51.794;21.590;2023-09-08T14:11:40;100606.18;;;27.02;56.14
51526;BME280;37611;51.794;21.590;2023-09-08T14:15:42;100603.00;;;26.99;56.57
51526;BME280;37611;51.794;21.590;2023-09-08T14:19:44;100600.83;;;26.94;56.96
51526;BME280;37611;51.794;21.590;2023-09-08T14:23:46;100599.80;;;26.87;56.97
51526;BME280;37611;51.794;21.590;2023-09-08T14:27:48;100599.80;;;26.77;56.66
51526;BME280;37611;51.794;21.590;2023-09-08T14:31:49;100599.34;;;26.69;56.33
51526;BME280;37611;51.794;21.590;2023-09-08T14:35:51;100597.70;;;26.64;56.60
51526;BME280;37611;51.794;21.590;2023-09-08T14:39:53;100592.04;;;26.55;55.77
51526;BME280;37611;51.794;21.590;2023-09-08T14:43:55;100586.58;;;26.42;55.87
51526;BME280;37611;51.794;21.590;2023-09-08T14:47:56;100577.26;;;26.28;56.82
51526;BME280;37611;51.794;21.590;2023-09-08T14:51:58;100578.27;;;26.15;57.65
51526;BME280;37611;51.794;21.590;2023-09-08T14:56:00;100573.72;;;26.05;57.87
51526;BME280;37611;51.794;21.590;2023-09-08T15:00:03;100573.77;;;25.97;58.32
51526;BME280;37611;51.794;21.590;2023-09-08T15:04:06;100567.99;;;25.91;58.54
51526;BME280;37611;51.794;21.590;2023-09-08T15:08:07;100564.44;;;25.84;59.02
51526;BME280;37611;51.794;21.590;2023-09-08T15:12:09;100561.75;;;25.78;59.19
51526;BME280;37611;51.794;21.590;2023-09-08T15:16:11;100559.17;;;25.71;58.66
51526;BME280;37611;51.794;21.590;2023-09-08T15:20:13;100554.91;;;25.67;58.50
51526;BME280;37611;51.794;21.590;2023-09-08T15:24:15;100550.05;;;25.62;59.12
51526;BME280;37611;51.794;21.590;2023-09-08T15:28:17;100547.39;;;25.55;59.48
51526;BME280;37611;51.794;21.590;2023-09-08T15:32:19;100548.34;;;25.46;59.64
51526;BME280;37611;51.794;21.590;2023-09-08T15:36:20;100547.81;;;25.39;59.87
51526;BME280;37611;51.794;21.590;2023-09-08T15:40:22;100543.02;;;25.34;60.31
51526;BME280;37611;51.794;21.590;2023-09-08T15:44:24;100541.95;;;25.29;60.66
51526;BME280;37611;51.794;21.590;2023-09-08T15:48:26;100535.46;;;25.23;61.19
51526;BME280;37611;51.794;21.590;2023-09-08T15:52:27;100535.38;;;25.16;61.37
51526;BME280;37611;51.794;21.590;2023-09-08T15:56:29;100532.70;;;25.10;61.76
51526;BME280;37611;51.794;21.590;2023-09-08T16:00:31;100534.05;;;25.04;62.39
51526;BME280;37611;51.794;21.590;2023-09-08T16:04:34;100532.33;;;24.97;62.71
51526;BME280;37611;51.794;21.590;2023-09-08T16:08:36;100527.71;;;24.92;62.88
51526;BME280;37611;51.794;21.590;2023-09-08T16:12:38;100524.75;;;24.87;63.71
51526;BME280;37611;51.794;21.590;2023-09-08T16:16:39;100522.16;;;24.80;64.38
51526;BME280;37611;51.794;21.590;2023-09-08T16:20:42;100521.88;;;24.73;65.19
51526;BME280;37611;51.794;21.590;2023-09-08T16:24:43;100520.98;;;24.63;65.70
51526;BME280;37611;51.794;21.590;2023-09-08T16:28:45;100520.18;;;24.53;66.72
51526;BME280;37611;51.794;21.590;2023-09-08T16:32:47;100519.50;;;24.43;66.87
51526;BME280;37611;51.794;21.590;2023-09-08T16:36:49;100516.69;;;24.32;67.82
51526;BME280;37611;51.794;21.590;2023-09-08T16:40:50;100519.39;;;24.19;68.84
51526;BME280;37611;51.794;21.590;2023-09-08T16:44:52;100514.98;;;24.04;69.36
51526;BME280;37611;51.794;21.590;2023-09-08T16:48:54;100519.45;;;23.88;70.13
51526;BME280;37611;51.794;21.590;2023-09-08T16:52:56;100520.61;;;23.71;71.00
51526;BME280;37611;51.794;21.590;2023-09-08T16:56:58;100523.59;;;23.53;71.75
51526;BME280;37611;51.794;21.590;2023-09-08T17:01:02;100523.98;;;23.36;72.59
51526;BME280;37611;51.794;21.590;2023-09-08T17:05:05;100526.11;;;23.19;73.27
51526;BME280;37611;51.794;21.590;2023-09-08T17:09:13;100526.25;;;22.99;74.29
51526;BME280;37611;51.794;21.590;2023-09-08T17:13:15;100525.36;;;22.78;75.09
51526;BME280;37611;51.794;21.590;2023-09-08T17:17:17;100523.36;;;22.55;75.87
51526;BME280;37611;51.794;21.590;2023-09-08T17:21:19;100524.98;;;22.36;76.67
51526;BME280;37611;51.794;21.590;2023-09-08T17:25:21;100525.17;;;22.20;77.34
51526;BME280;37611;51.794;21.590;2023-09-08T17:29:22;100525.59;;;22.06;77.98
51526;BME280;37611;51.794;21.590;2023-09-08T17:33:24;100528.45;;;21.94;78.70
51526;BME280;37611;51.794;21.590;2023-09-08T17:37:26;100529.79;;;21.83;79.36
51526;BME280;37611;51.794;21.590;2023-09-08T17:41:28;100528.42;;;21.73;79.95
51526;BME280;37611;51.794;21.590;2023-09-08T17:45:29;100526.44;;;21.64;80.56
51526;BME280;37611;51.794;21.590;2023-09-08T17:49:31;100525.45;;;21.54;81.24
51526;BME280;37611;51.794;21.590;2023-09-08T17:53:36;100529.23;;;21.41;81.55
51526;BME280;37611;51.794;21.590;2023-09-08T17:57:39;100530.73;;;21.28;82.31
51526;BME280;37611;51.794;21.590;2023-09-08T18:01:40;100527.50;;;21.15;82.70
51526;BME280;37611;51.794;21.590;2023-09-08T18:05:42;100525.05;;;21.03;83.02
51526;BME280;37611;51.794;21.590;2023-09-08T18:10:10;100525.52;;;20.90;83.55
51526;BME280;37611;51.794;21.590;2023-09-08T18:14:14;100527.95;;;20.77;84.11
51526;BME280;37611;51.794;21.590;2023-09-08T18:18:17;100528.23;;;20.67;84.81
51526;BME280;37611;51.794;21.590;2023-09-08T18:22:21;100529.06;;;20.57;85.39
51526;BME280;37611;51.794;21.590;2023-09-08T18:26:23;100528.98;;;20.45;85.47
51526;BME280;37611;51.794;21.590;2023-09-08T18:30:24;100532.41;;;20.34;86.14
51526;BME280;37611;51.794;21.590;2023-09-08T18:34:27;100533.14;;;20.26;87.00
51526;BME280;37611;51.794;21.590;2023-09-08T18:38:29;100533.33;;;20.17;87.73
51526;BME280;37611;51.794;21.590;2023-09-08T18:42:32;100533.73;;;20.04;87.69
51526;BME280;37611;51.794;21.590;2023-09-08T18:46:34;100530.76;;;19.93;88.16
51526;BME280;37611;51.794;21.590;2023-09-08T18:50:36;100530.27;;;19.82;88.57
51526;BME280;37611;51.794;21.590;2023-09-08T18:54:38;100527.79;;;19.71;89.65
51526;BME280;37611;51.794;21.590;2023-09-08T18:58:41;100531.58;;;19.58;89.81
51526;BME280;37611;51.794;21.590;2023-09-08T19:02:42;100527.66;;;19.47;90.30
51526;BME280;37611;51.794;21.590;2023-09-08T19:06:44;100525.56;;;19.38;90.95
51526;BME280;37611;51.794;21.590;2023-09-08T19:10:46;100524.33;;;19.28;91.31
51526;BME280;37611;51.794;21.590;2023-09-08T19:14:48;100522.39;;;19.21;92.00
51526;BME280;37611;51.794;21.590;2023-09-08T19:18:50;100522.02;;;19.15;91.96
51526;BME280;37611;51.794;21.590;2023-09-08T19:22:52;100522.48;;;19.08;92.31
51526;BME280;37611;51.794;21.590;2023-09-08T19:26:54;100516.86;;;19.02;92.34
51526;BME280;37611;51.794;21.590;2023-09-08T19:30:55;100510.56;;;18.94;92.95
51526;BME280;37611;51.794;21.590;2023-09-08T19:34:57;100512.73;;;18.91;93.40
51526;BME280;37611;51.794;21.590;2023-09-08T19:38:59;100509.35;;;18.87;93.49
51526;BME280;37611;51.794;21.590;2023-09-08T19:43:01;100505.18;;;18.78;93.61
51526;BME280;37611;51.794;21.590;2023-09-08T19:47:03;100507.52;;;18.72;94.46
51526;BME280;37611;51.794;21.590;2023-09-08T19:51:05;100503.76;;;18.62;94.70
51526;BME280;37611;51.794;21.590;2023-09-08T19:55:07;100503.81;;;18.53;94.77
51526;BME280;37611;51.794;21.590;2023-09-08T19:59:10;100502.31;;;18.41;94.74
51526;BME280;37611;51.794;21.590;2023-09-08T20:03:12;100498.47;;;18.33;95.55
51526;BME280;37611;51.794;21.590;2023-09-08T20:07:14;100499.98;;;18.29;95.66
51526;BME280;37611;51.794;21.590;2023-09-08T20:11:16;100500.02;;;18.20;95.79
51526;BME280;37611;51.794;21.590;2023-09-08T20:15:18;100495.90;;;18.09;95.98
51526;BME280;37611;51.794;21.590;2023-09-08T20:19:19;100497.89;;;18.02;96.49
51526;BME280;37611;51.794;21.590;2023-09-08T20:23:22;100496.55;;;17.96;96.83
51526;BME280;37611;51.794;21.590;2023-09-08T20:27:24;100496.13;;;17.88;97.36
51526;BME280;37611;51.794;21.590;2023-09-08T20:31:26;100495.52;;;17.81;97.58
51526;BME280;37611;51.794;21.590;2023-09-08T20:35:28;100494.15;;;17.73;98.05
51526;BME280;37611;51.794;21.590;2023-09-08T20:39:30;100490.89;;;17.68;98.37
51526;BME280;37611;51.794;21.590;2023-09-08T20:43:32;100497.29;;;17.63;98.87
51526;BME280;37611;51.794;21.590;2023-09-08T20:47:35;100496.17;;;17.59;98.97
51526;BME280;37611;51.794;21.590;2023-09-08T20:51:37;100495.23;;;17.53;98.91
51526;BME280;37611;51.794;21.590;2023-09-08T20:55:39;100493.23;;;17.46;99.62